<?xml version='1.0' encoding='UTF-8'?><gpx version="1.1" creator="JPX - https://github.com/jenetics/jpx" xmlns="http://www.topografix.com/GPX/1/1"><trk><trkseg><trkpt lat="44.48414135580565" lon="7.902211816556801"><ele>274.0</ele><time>2026-04-26T15:41:04Z</time></trkpt><trkpt lat="44.484199963093225" lon="7.902046265301418"><ele>274.0</ele><time>2026-04-26T15:41:06.001Z</time></trkpt><trkpt lat="44.48426033436259" lon="7.901897530192176"><ele>274.0</ele><time>2026-04-26T15:41:07.999Z</time></trkpt><trkpt lat="44.484285893259276" lon="7.901814024839263"><ele>274.0</ele><time>2026-04-26T15:41:08.999Z</time></trkpt><trkpt lat="44.48431410141939" lon="7.90172186401056"><ele>274.0</ele><time>2026-04-26T15:41:09.999Z</time></trkpt><trkpt lat="44.4843427962381" lon="7.901628113076958"><ele>274.0</ele><time>2026-04-26T15:41:10.999Z</time></trkpt><trkpt lat="44.484382807762856" lon="7.90147949088807"><ele>274.0</ele><time>2026-04-26T15:41:12.999Z</time></trkpt><trkpt lat="44.48442245136287" lon="7.901337434158246"><ele>274.0</ele><time>2026-04-26T15:41:14.999Z</time></trkpt><trkpt lat="44.484475634802145" lon="7.901176106044034"><ele>274.0</ele><time>2026-04-26T15:41:16.999Z</time></trkpt><trkpt lat="44.48451184248383" lon="7.901094874412616"><ele>274.0</ele><time>2026-04-26T15:41:17.999Z</time></trkpt><trkpt lat="44.484527640583096" lon="7.900981400690648"><ele>274.0</ele><time>2026-04-26T15:41:18.999Z</time></trkpt><trkpt lat="44.48457703844568" lon="7.900879663227927"><ele>274.0</ele><time>2026-04-26T15:41:19.999Z</time></trkpt><trkpt lat="44.48460899598047" lon="7.900779242260654"><ele>274.0</ele><time>2026-04-26T15:41:20.999Z</time></trkpt><trkpt lat="44.48463579039501" lon="7.900695045618164"><ele>274.0</ele><time>2026-04-26T15:41:21.999Z</time></trkpt><trkpt lat="44.48468061682391" lon="7.900554186371143"><ele>274.0</ele><time>2026-04-26T15:41:23.999Z</time></trkpt><trkpt lat="44.48460933850614" lon="7.900383313648134"><ele>274.0</ele><time>2026-04-26T15:41:25.999Z</time></trkpt><trkpt lat="44.484523176390475" lon="7.900308550669604"><ele>274.0</ele><time>2026-04-26T15:41:26.999Z</time></trkpt><trkpt lat="44.48442295531554" lon="7.900220446357167"><ele>274.0</ele><time>2026-04-26T15:41:27.999Z</time></trkpt><trkpt lat="44.484319540453804" lon="7.9001142758884875"><ele>274.0</ele><time>2026-04-26T15:41:28.999Z</time></trkpt><trkpt lat="44.484213921987575" lon="7.899992724706569"><ele>274.4</ele><time>2026-04-26T15:41:30Z</time></trkpt><trkpt lat="44.48412638472238" lon="7.899887833057854"><ele>274.79999999999995</ele><time>2026-04-26T15:41:31Z</time></trkpt><trkpt lat="44.484040523505094" lon="7.899794420888238"><ele>275.20000000000005</ele><time>2026-04-26T15:41:32Z</time></trkpt><trkpt lat="44.483962035662856" lon="7.899709518535693"><ele>275.6</ele><time>2026-04-26T15:41:33Z</time></trkpt><trkpt lat="44.48388861600513" lon="7.899629630709228"><ele>276.0</ele><time>2026-04-26T15:41:34Z</time></trkpt><trkpt lat="44.483820189840436" lon="7.899557833723533"><ele>276.0</ele><time>2026-04-26T15:41:35Z</time></trkpt><trkpt lat="44.48376352446061" lon="7.899498877049416"><ele>276.0</ele><time>2026-04-26T15:41:36Z</time></trkpt><trkpt lat="44.48367144487615" lon="7.899404333358219"><ele>276.0</ele><time>2026-04-26T15:41:38Z</time></trkpt><trkpt lat="44.48361114963169" lon="7.899325872395219"><ele>276.0</ele><time>2026-04-26T15:41:40Z</time></trkpt><trkpt lat="44.48367626589985" lon="7.899154299834933"><ele>276.0</ele><time>2026-04-26T15:41:43Z</time></trkpt><trkpt lat="44.48370429935574" lon="7.899032227831745"><ele>276.25</ele><time>2026-04-26T15:41:44Z</time></trkpt><trkpt lat="44.483737444034965" lon="7.898884516134308"><ele>276.5</ele><time>2026-04-26T15:41:45Z</time></trkpt><trkpt lat="44.483766145046516" lon="7.898703471453106"><ele>276.75</ele><time>2026-04-26T15:41:46Z</time></trkpt><trkpt lat="44.48376399646255" lon="7.898507140277562"><ele>277.0</ele><time>2026-04-26T15:41:47Z</time></trkpt><trkpt lat="44.48375876290066" lon="7.898341598692304"><ele>277.4</ele><time>2026-04-26T15:41:48Z</time></trkpt><trkpt lat="44.48371862056444" lon="7.898181297106715"><ele>277.79999999999995</ele><time>2026-04-26T15:41:49Z</time></trkpt><trkpt lat="44.483652589305734" lon="7.898063025348082"><ele>278.2</ele><time>2026-04-26T15:41:50Z</time></trkpt><trkpt lat="44.4835985895934" lon="7.89795975061758"><ele>278.59999999999997</ele><time>2026-04-26T15:41:51Z</time></trkpt><trkpt lat="44.483571453739" lon="7.897871000149984"><ele>279.0</ele><time>2026-04-26T15:41:52Z</time></trkpt><trkpt lat="44.48354199847916" lon="7.897754842429714"><ele>279.0</ele><time>2026-04-26T15:41:53Z</time></trkpt><trkpt lat="44.48352097017637" lon="7.897606210624997"><ele>279.0</ele><time>2026-04-26T15:41:54Z</time></trkpt><trkpt lat="44.483505748543024" lon="7.897479372335409"><ele>279.0</ele><time>2026-04-26T15:41:55Z</time></trkpt><trkpt lat="44.48348477210086" lon="7.89731865946353"><ele>279.0</ele><time>2026-04-26T15:41:56Z</time></trkpt><trkpt lat="44.48347043084367" lon="7.897157192594006"><ele>279.0</ele><time>2026-04-26T15:41:57Z</time></trkpt><trkpt lat="44.48343143899313" lon="7.897012815315848"><ele>279.25</ele><time>2026-04-26T15:41:58Z</time></trkpt><trkpt lat="44.48340288932735" lon="7.896840605105561"><ele>279.5</ele><time>2026-04-26T15:41:59Z</time></trkpt><trkpt lat="44.48337722034033" lon="7.896675618697003"><ele>279.75</ele><time>2026-04-26T15:42:00Z</time></trkpt><trkpt lat="44.48335952237018" lon="7.89652174289033"><ele>280.0</ele><time>2026-04-26T15:42:01Z</time></trkpt><trkpt lat="44.483336199527706" lon="7.896359609661463"><ele>280.0</ele><time>2026-04-26T15:42:02Z</time></trkpt><trkpt lat="44.4833095694131" lon="7.8961955075491765"><ele>280.0</ele><time>2026-04-26T15:42:03Z</time></trkpt><trkpt lat="44.4832797658512" lon="7.89603103307812"><ele>280.0</ele><time>2026-04-26T15:42:04Z</time></trkpt><trkpt lat="44.48325308067815" lon="7.895851959496132"><ele>280.0</ele><time>2026-04-26T15:42:05Z</time></trkpt><trkpt lat="44.483221426755186" lon="7.895673266516943"><ele>279.66666666666663</ele><time>2026-04-26T15:42:06Z</time></trkpt><trkpt lat="44.48317880693939" lon="7.89547768459169"><ele>279.3333333333333</ele><time>2026-04-26T15:42:07Z</time></trkpt><trkpt lat="44.483098425655754" lon="7.895274885927644"><ele>279.0</ele><time>2026-04-26T15:42:08Z</time></trkpt><trkpt lat="44.48300670418986" lon="7.895067044952256"><ele>275.3333333333333</ele><time>2026-04-26T15:42:09Z</time></trkpt><trkpt lat="44.48290730876531" lon="7.894878436035941"><ele>271.66666666666663</ele><time>2026-04-26T15:42:10Z</time></trkpt><trkpt lat="44.48280870759183" lon="7.894708579141399"><ele>268.0</ele><time>2026-04-26T15:42:11Z</time></trkpt><trkpt lat="44.4827112910982" lon="7.894557246445883"><ele>268.0</ele><time>2026-04-26T15:42:12Z</time></trkpt><trkpt lat="44.482615316122775" lon="7.894408079039225"><ele>268.0</ele><time>2026-04-26T15:42:13Z</time></trkpt><trkpt lat="44.48252342333069" lon="7.894291348608289"><ele>268.0</ele><time>2026-04-26T15:42:14Z</time></trkpt><trkpt lat="44.48245357794735" lon="7.894173345830988"><ele>268.0</ele><time>2026-04-26T15:42:15Z</time></trkpt><trkpt lat="44.482393536782915" lon="7.89406265818435"><ele>268.8</ele><time>2026-04-26T15:42:16Z</time></trkpt><trkpt lat="44.48237046911569" lon="7.893969444888214"><ele>269.6</ele><time>2026-04-26T15:42:17Z</time></trkpt><trkpt lat="44.482401418521704" lon="7.893884131061558"><ele>270.4</ele><time>2026-04-26T15:42:18Z</time></trkpt><trkpt lat="44.48235536923433" lon="7.893787070228444"><ele>271.2</ele><time>2026-04-26T15:42:19Z</time></trkpt><trkpt lat="44.482350711281384" lon="7.8936404446708615"><ele>272.0</ele><time>2026-04-26T15:42:21Z</time></trkpt><trkpt lat="44.482508119668154" lon="7.893309079218601"><ele>272.83333333333337</ele><time>2026-04-26T15:42:22Z</time></trkpt><trkpt lat="44.48248119077946" lon="7.8931982329102786"><ele>273.6666666666667</ele><time>2026-04-26T15:42:23Z</time></trkpt><trkpt lat="44.48244032550263" lon="7.893090981798323"><ele>274.5</ele><time>2026-04-26T15:42:24Z</time></trkpt><trkpt lat="44.48240852853756" lon="7.893011676956478"><ele>275.3333333333333</ele><time>2026-04-26T15:42:25Z</time></trkpt><trkpt lat="44.48237424837374" lon="7.892926178867027"><ele>276.16666666666663</ele><time>2026-04-26T15:42:26Z</time></trkpt><trkpt lat="44.482331898364244" lon="7.892820553881998"><ele>277.0</ele><time>2026-04-26T15:42:27Z</time></trkpt><trkpt lat="44.482259944040095" lon="7.892734021878631"><ele>277.0</ele><time>2026-04-26T15:42:28Z</time></trkpt><trkpt lat="44.48218608696287" lon="7.8926531531419135"><ele>277.0</ele><time>2026-04-26T15:42:29Z</time></trkpt><trkpt lat="44.482104355596206" lon="7.892558114852544"><ele>277.0</ele><time>2026-04-26T15:42:30Z</time></trkpt><trkpt lat="44.481443304442195" lon="7.892854831185513"><ele>275.25</ele><time>2026-04-26T15:42:31Z</time></trkpt><trkpt lat="44.48130625870694" lon="7.89279914591046"><ele>273.5</ele><time>2026-04-26T15:42:32Z</time></trkpt><trkpt lat="44.48119607872816" lon="7.892748122659626"><ele>271.75</ele><time>2026-04-26T15:42:33Z</time></trkpt><trkpt lat="44.481098135123226" lon="7.89269812995809"><ele>270.0</ele><time>2026-04-26T15:42:34Z</time></trkpt><trkpt lat="44.48098578057445" lon="7.892643239393288"><ele>269.6</ele><time>2026-04-26T15:42:35Z</time></trkpt><trkpt lat="44.48087649180629" lon="7.89260101946531"><ele>269.2</ele><time>2026-04-26T15:42:36Z</time></trkpt><trkpt lat="44.48078137697965" lon="7.8925650861860905"><ele>268.8</ele><time>2026-04-26T15:42:37Z</time></trkpt><trkpt lat="44.480711432742794" lon="7.892521399894956"><ele>268.4</ele><time>2026-04-26T15:42:38Z</time></trkpt><trkpt lat="44.480627120616376" lon="7.892481297897285"><ele>268.0</ele><time>2026-04-26T15:42:39Z</time></trkpt><trkpt lat="44.480544400127144" lon="7.892460889487126"><ele>268.5</ele><time>2026-04-26T15:42:40Z</time></trkpt><trkpt lat="44.480482226379486" lon="7.892428779519555"><ele>269.0</ele><time>2026-04-26T15:42:41Z</time></trkpt><trkpt lat="44.480418606141946" lon="7.892406931417006"><ele>269.5</ele><time>2026-04-26T15:42:43Z</time></trkpt><trkpt lat="44.4803519140295" lon="7.892380095152746"><ele>270.0</ele><time>2026-04-26T15:42:49Z</time></trkpt><trkpt lat="44.480271067651586" lon="7.892400319284164"><ele>270.5</ele><time>2026-04-26T15:43:04Z</time></trkpt><trkpt lat="44.480209480015" lon="7.892425338281771"><ele>271.0</ele><time>2026-04-26T15:43:08.001Z</time></trkpt><trkpt lat="44.48003245791632" lon="7.892390632092382"><ele>271.0</ele><time>2026-04-26T15:43:33Z</time></trkpt><trkpt lat="44.479936054848785" lon="7.892392951788722"><ele>271.0</ele><time>2026-04-26T15:43:34Z</time></trkpt><trkpt lat="44.47984194926096" lon="7.892380368797756"><ele>271.0</ele><time>2026-04-26T15:43:35Z</time></trkpt><trkpt lat="44.47975655711035" lon="7.892385768457815"><ele>271.0</ele><time>2026-04-26T15:43:36Z</time></trkpt><trkpt lat="44.479672443532706" lon="7.892385780268693"><ele>271.0</ele><time>2026-04-26T15:43:37Z</time></trkpt><trkpt lat="44.47958929981302" lon="7.892395826863442"><ele>271.0</ele><time>2026-04-26T15:43:38Z</time></trkpt><trkpt lat="44.47945725892494" lon="7.892401583159346"><ele>271.0</ele><time>2026-04-26T15:43:40Z</time></trkpt><trkpt lat="44.479380340672996" lon="7.892396461621138"><ele>271.0</ele><time>2026-04-26T15:43:41Z</time></trkpt><trkpt lat="44.47930179009763" lon="7.892394718390144"><ele>271.0</ele><time>2026-04-26T15:43:42Z</time></trkpt><trkpt lat="44.479222625672456" lon="7.892399348251457"><ele>271.0</ele><time>2026-04-26T15:43:43Z</time></trkpt><trkpt lat="44.479143556936016" lon="7.8924048148585895"><ele>271.0</ele><time>2026-04-26T15:43:44Z</time></trkpt><trkpt lat="44.47907219076325" lon="7.892396267241525"><ele>271.0</ele><time>2026-04-26T15:43:45Z</time></trkpt><trkpt lat="44.478990952881205" lon="7.892392712022251"><ele>271.0</ele><time>2026-04-26T15:43:46Z</time></trkpt><trkpt lat="44.47892441520086" lon="7.892392502513696"><ele>271.0</ele><time>2026-04-26T15:43:47Z</time></trkpt><trkpt lat="44.478843206420585" lon="7.892388843623577"><ele>271.0</ele><time>2026-04-26T15:43:48Z</time></trkpt><trkpt lat="44.47875678055625" lon="7.892379349426805"><ele>271.0</ele><time>2026-04-26T15:43:49Z</time></trkpt><trkpt lat="44.47865908681495" lon="7.892377119134472"><ele>271.0</ele><time>2026-04-26T15:43:50Z</time></trkpt><trkpt lat="44.478568205581496" lon="7.892368521152405"><ele>271.0</ele><time>2026-04-26T15:43:51Z</time></trkpt><trkpt lat="44.478480510351936" lon="7.8923599193704375"><ele>271.2</ele><time>2026-04-26T15:43:52Z</time></trkpt><trkpt lat="44.47838825257792" lon="7.89235279788968"><ele>271.40000000000003</ele><time>2026-04-26T15:43:53Z</time></trkpt><trkpt lat="44.47829394851312" lon="7.892342348563731"><ele>271.6</ele><time>2026-04-26T15:43:54Z</time></trkpt><trkpt lat="44.47820138813077" lon="7.89234098179463"><ele>271.8</ele><time>2026-04-26T15:43:55Z</time></trkpt><trkpt lat="44.478102768845254" lon="7.892331019903541"><ele>272.0</ele><time>2026-04-26T15:43:56Z</time></trkpt><trkpt lat="44.47801192349974" lon="7.892306713504826"><ele>272.0</ele><time>2026-04-26T15:43:57Z</time></trkpt><trkpt lat="44.477921143846885" lon="7.892268156804608"><ele>272.0</ele><time>2026-04-26T15:43:58Z</time></trkpt><trkpt lat="44.47784717618119" lon="7.892221184195827"><ele>272.0</ele><time>2026-04-26T15:43:59Z</time></trkpt><trkpt lat="44.477765049447825" lon="7.892138124793944"><ele>272.0</ele><time>2026-04-26T15:44:01Z</time></trkpt><trkpt lat="44.47778038455485" lon="7.891991183749164"><ele>272.0</ele><time>2026-04-26T15:44:03Z</time></trkpt><trkpt lat="44.47781964538387" lon="7.891874580485119"><ele>272.5</ele><time>2026-04-26T15:44:04Z</time></trkpt><trkpt lat="44.47784440999319" lon="7.891736149638878"><ele>273.0</ele><time>2026-04-26T15:44:05Z</time></trkpt><trkpt lat="44.477845957820115" lon="7.8915673692843376"><ele>273.5</ele><time>2026-04-26T15:44:06Z</time></trkpt><trkpt lat="44.47784067312943" lon="7.891395624842035"><ele>274.0</ele><time>2026-04-26T15:44:07Z</time></trkpt><trkpt lat="44.47782464437962" lon="7.891244725324357"><ele>274.0</ele><time>2026-04-26T15:44:08Z</time></trkpt><trkpt lat="44.47782396583188" lon="7.891105535936095"><ele>274.0</ele><time>2026-04-26T15:44:09Z</time></trkpt><trkpt lat="44.47787172833703" lon="7.890992282856891"><ele>274.0</ele><time>2026-04-26T15:44:10Z</time></trkpt><trkpt lat="44.47789930992597" lon="7.890886930891704"><ele>274.0</ele><time>2026-04-26T15:44:11Z</time></trkpt><trkpt lat="44.4779251424189" lon="7.890788260711794"><ele>274.0</ele><time>2026-04-26T15:44:12Z</time></trkpt><trkpt lat="44.47794817638063" lon="7.8907002782055695"><ele>274.0</ele><time>2026-04-26T15:44:13Z</time></trkpt><trkpt lat="44.47798549571149" lon="7.8905589713280175"><ele>275.0</ele><time>2026-04-26T15:44:15Z</time></trkpt><trkpt lat="44.477843732657654" lon="7.890177619764808"><ele>276.0</ele><time>2026-04-26T15:44:18Z</time></trkpt><trkpt lat="44.47769551164406" lon="7.8904080834779"><ele>276.0</ele><time>2026-04-26T15:44:19Z</time></trkpt><trkpt lat="44.47754203232363" lon="7.890350256012185"><ele>276.0</ele><time>2026-04-26T15:44:20Z</time></trkpt><trkpt lat="44.47736135994054" lon="7.89029592276702"><ele>276.0</ele><time>2026-04-26T15:44:21Z</time></trkpt><trkpt lat="44.47716688242465" lon="7.8902478422531885"><ele>275.0</ele><time>2026-04-26T15:44:22Z</time></trkpt><trkpt lat="44.47702359790048" lon="7.88988073512838"><ele>274.0</ele><time>2026-04-26T15:44:23Z</time></trkpt><trkpt lat="44.47680524578535" lon="7.88980259195389"><ele>274.0</ele><time>2026-04-26T15:44:24Z</time></trkpt><trkpt lat="44.47663548203721" lon="7.889754741451799"><ele>274.0</ele><time>2026-04-26T15:44:25Z</time></trkpt><trkpt lat="44.476463138557584" lon="7.889713458466381"><ele>274.0</ele><time>2026-04-26T15:44:26Z</time></trkpt><trkpt lat="44.476239136320324" lon="7.889673154109701"><ele>274.0</ele><time>2026-04-26T15:44:27Z</time></trkpt><trkpt lat="44.475986278496585" lon="7.889649043857045"><ele>274.0</ele><time>2026-04-26T15:44:28Z</time></trkpt><trkpt lat="44.47574714056431" lon="7.889642966245296"><ele>274.0</ele><time>2026-04-26T15:44:29Z</time></trkpt><trkpt lat="44.47555687982307" lon="7.889646598736295"><ele>274.0</ele><time>2026-04-26T15:44:30.001Z</time></trkpt><trkpt lat="44.47538701018879" lon="7.890247492590024"><ele>273.5</ele><time>2026-04-26T15:44:31.001Z</time></trkpt><trkpt lat="44.475239415924825" lon="7.890259162621012"><ele>273.0</ele><time>2026-04-26T15:44:32.001Z</time></trkpt><trkpt lat="44.475103523452916" lon="7.890264930488482"><ele>272.5</ele><time>2026-04-26T15:44:33.001Z</time></trkpt><trkpt lat="44.47496518206625" lon="7.890265244717847"><ele>272.0</ele><time>2026-04-26T15:44:34.001Z</time></trkpt><trkpt lat="44.47479313928973" lon="7.889933042246919"><ele>273.0</ele><time>2026-04-26T15:44:35.001Z</time></trkpt><trkpt lat="44.47466096308347" lon="7.88995965877914"><ele>274.0</ele><time>2026-04-26T15:44:36.001Z</time></trkpt><trkpt lat="44.47454023593493" lon="7.889983969712665"><ele>275.0</ele><time>2026-04-26T15:44:37.001Z</time></trkpt><trkpt lat="44.47441010727662" lon="7.890014885549179"><ele>276.0</ele><time>2026-04-26T15:44:38.001Z</time></trkpt><trkpt lat="44.474287633474944" lon="7.890044381624107"><ele>276.40000000000003</ele><time>2026-04-26T15:44:39.001Z</time></trkpt><trkpt lat="44.47421113094642" lon="7.89005979733095"><ele>276.8</ele><time>2026-04-26T15:44:40.001Z</time></trkpt><trkpt lat="44.47410742985342" lon="7.890064948492656"><ele>277.20000000000005</ele><time>2026-04-26T15:44:41.001Z</time></trkpt><trkpt lat="44.47404308422287" lon="7.890055605347362"><ele>277.6</ele><time>2026-04-26T15:44:42.001Z</time></trkpt><trkpt lat="44.47392194880813" lon="7.890009204806146"><ele>278.0</ele><time>2026-04-26T15:44:44.001Z</time></trkpt><trkpt lat="44.47379739261973" lon="7.889953345720372"><ele>277.8</ele><time>2026-04-26T15:44:46.001Z</time></trkpt><trkpt lat="44.473695555590226" lon="7.889865283629518"><ele>277.6</ele><time>2026-04-26T15:44:48.001Z</time></trkpt><trkpt lat="44.47361988885736" lon="7.8898134074912285"><ele>277.4</ele><time>2026-04-26T15:44:49.001Z</time></trkpt><trkpt lat="44.4734971992111" lon="7.88972093971131"><ele>277.2</ele><time>2026-04-26T15:44:51.001Z</time></trkpt><trkpt lat="44.47341390443832" lon="7.889655040547234"><ele>277.0</ele><time>2026-04-26T15:44:52.001Z</time></trkpt><trkpt lat="44.473077463673036" lon="7.890071133132237"><ele>277.0</ele><time>2026-04-26T15:44:54.001Z</time></trkpt><trkpt lat="44.47300614956423" lon="7.890033949041175"><ele>277.0</ele><time>2026-04-26T15:44:55.001Z</time></trkpt><trkpt lat="44.47289856523303" lon="7.889991309366945"><ele>277.0</ele><time>2026-04-26T15:44:56.001Z</time></trkpt><trkpt lat="44.47279258416141" lon="7.889917870074576"><ele>277.0</ele><time>2026-04-26T15:44:57.001Z</time></trkpt><trkpt lat="44.47283761960053" lon="7.889127532417396"><ele>277.5</ele><time>2026-04-26T15:44:58.001Z</time></trkpt><trkpt lat="44.47271560951976" lon="7.8890585390187855"><ele>278.0</ele><time>2026-04-26T15:44:59.001Z</time></trkpt><trkpt lat="44.47258430232729" lon="7.888980099659742"><ele>278.5</ele><time>2026-04-26T15:45:00.001Z</time></trkpt><trkpt lat="44.472468012694364" lon="7.888907562464685"><ele>279.0</ele><time>2026-04-26T15:45:01.001Z</time></trkpt><trkpt lat="44.47237408608236" lon="7.8888483953798385"><ele>279.0</ele><time>2026-04-26T15:45:02.001Z</time></trkpt><trkpt lat="44.47228038877489" lon="7.888784479948111"><ele>279.0</ele><time>2026-04-26T15:45:03.001Z</time></trkpt><trkpt lat="44.47220053357419" lon="7.888730569534119"><ele>279.0</ele><time>2026-04-26T15:45:04.001Z</time></trkpt><trkpt lat="44.47211969631705" lon="7.88867148944364"><ele>279.0</ele><time>2026-04-26T15:45:05.001Z</time></trkpt><trkpt lat="44.47202254617276" lon="7.888594791379087"><ele>279.0</ele><time>2026-04-26T15:45:07.001Z</time></trkpt><trkpt lat="44.47196053217514" lon="7.88854364250236"><ele>279.0</ele><time>2026-04-26T15:45:09.001Z</time></trkpt><trkpt lat="44.471661838473885" lon="7.889108566734004"><ele>279.0</ele><time>2026-04-26T15:45:10.001Z</time></trkpt><trkpt lat="44.47184801626834" lon="7.889133717036411"><ele>279.0</ele><time>2026-04-26T15:45:21Z</time></trkpt><trkpt lat="44.47181183793498" lon="7.88902994646902"><ele>279.0</ele><time>2026-04-26T15:45:23Z</time></trkpt><trkpt lat="44.4717499418241" lon="7.88898610358063"><ele>279.0</ele><time>2026-04-26T15:45:28Z</time></trkpt><trkpt lat="44.47167030567264" lon="7.888878037500403"><ele>279.0</ele><time>2026-04-26T15:45:30Z</time></trkpt><trkpt lat="44.47154492320722" lon="7.888812644950128"><ele>279.0</ele><time>2026-04-26T15:45:32Z</time></trkpt><trkpt lat="44.47145743458466" lon="7.888764367239715"><ele>279.0</ele><time>2026-04-26T15:45:33Z</time></trkpt><trkpt lat="44.47138709884544" lon="7.888687662646267"><ele>279.0</ele><time>2026-04-26T15:45:34Z</time></trkpt><trkpt lat="44.47133108970133" lon="7.888635746181339"><ele>279.0</ele><time>2026-04-26T15:45:35Z</time></trkpt><trkpt lat="44.4712708329239" lon="7.888579921159971"><ele>279.0</ele><time>2026-04-26T15:45:36Z</time></trkpt><trkpt lat="44.47120705507056" lon="7.888519968962383"><ele>279.0</ele><time>2026-04-26T15:45:37Z</time></trkpt><trkpt lat="44.47113350935389" lon="7.8884604610149704"><ele>279.0</ele><time>2026-04-26T15:45:38Z</time></trkpt><trkpt lat="44.47106937537218" lon="7.888408343612607"><ele>279.0</ele><time>2026-04-26T15:45:39Z</time></trkpt><trkpt lat="44.471007243524326" lon="7.888357941236288"><ele>279.0</ele><time>2026-04-26T15:45:40Z</time></trkpt><trkpt lat="44.47089322014059" lon="7.888264765395993"><ele>279.0</ele><time>2026-04-26T15:45:42Z</time></trkpt><trkpt lat="44.47083366538365" lon="7.888212513385874"><ele>279.5</ele><time>2026-04-26T15:45:43Z</time></trkpt><trkpt lat="44.47076576351369" lon="7.88815988664677"><ele>280.0</ele><time>2026-04-26T15:45:44Z</time></trkpt><trkpt lat="44.47069426153781" lon="7.888122513480486"><ele>280.5</ele><time>2026-04-26T15:45:45Z</time></trkpt><trkpt lat="44.47062554902144" lon="7.888068786687992"><ele>281.0</ele><time>2026-04-26T15:45:46Z</time></trkpt><trkpt lat="44.470548875677245" lon="7.888015877653623"><ele>281.5</ele><time>2026-04-26T15:45:47Z</time></trkpt><trkpt lat="44.47047327827127" lon="7.887963726375369"><ele>282.0</ele><time>2026-04-26T15:45:48Z</time></trkpt><trkpt lat="44.47039662630769" lon="7.8879199931459"><ele>282.0</ele><time>2026-04-26T15:45:49Z</time></trkpt><trkpt lat="44.47032341569303" lon="7.8878871536130255"><ele>282.0</ele><time>2026-04-26T15:45:50Z</time></trkpt><trkpt lat="44.470248462092776" lon="7.88785151774449"><ele>282.0</ele><time>2026-04-26T15:45:51Z</time></trkpt><trkpt lat="44.47017489615841" lon="7.887805899123407"><ele>282.0</ele><time>2026-04-26T15:45:52Z</time></trkpt><trkpt lat="44.470099008778476" lon="7.8877490585639505"><ele>282.0</ele><time>2026-04-26T15:45:53Z</time></trkpt><trkpt lat="44.47003008103126" lon="7.887684806934502"><ele>282.0</ele><time>2026-04-26T15:45:54Z</time></trkpt><trkpt lat="44.46996987519628" lon="7.887612698250693"><ele>282.6</ele><time>2026-04-26T15:45:55Z</time></trkpt><trkpt lat="44.46992183080607" lon="7.887540543230066"><ele>283.2</ele><time>2026-04-26T15:45:56Z</time></trkpt><trkpt lat="44.46986264856773" lon="7.887407410002585"><ele>283.8</ele><time>2026-04-26T15:45:58Z</time></trkpt><trkpt lat="44.46990258994978" lon="7.887280624933561"><ele>284.4</ele><time>2026-04-26T15:46:00Z</time></trkpt><trkpt lat="44.46991832114662" lon="7.887193036280925"><ele>285.0</ele><time>2026-04-26T15:46:01Z</time></trkpt><trkpt lat="44.4698498819897" lon="7.8870482959444645"><ele>285.0</ele><time>2026-04-26T15:46:03Z</time></trkpt><trkpt lat="44.46972968241316" lon="7.8869871538189"><ele>285.0</ele><time>2026-04-26T15:46:04Z</time></trkpt><trkpt lat="44.469728971728046" lon="7.886677599127319"><ele>285.0</ele><time>2026-04-26T15:46:05Z</time></trkpt><trkpt lat="44.469641451982554" lon="7.886595741963087"><ele>284.5</ele><time>2026-04-26T15:46:06Z</time></trkpt><trkpt lat="44.46953811499361" lon="7.886496130972211"><ele>284.0</ele><time>2026-04-26T15:46:07Z</time></trkpt><trkpt lat="44.46944308856985" lon="7.886402338354989"><ele>283.5</ele><time>2026-04-26T15:46:08Z</time></trkpt><trkpt lat="44.46932385386369" lon="7.8862849675441815"><ele>283.0</ele><time>2026-04-26T15:46:09Z</time></trkpt><trkpt lat="44.46918194295449" lon="7.886146889052811"><ele>283.0</ele><time>2026-04-26T15:46:10Z</time></trkpt><trkpt lat="44.46901947154911" lon="7.885988805382496"><ele>283.0</ele><time>2026-04-26T15:46:11Z</time></trkpt><trkpt lat="44.46884681313652" lon="7.885817730182452"><ele>283.0</ele><time>2026-04-26T15:46:12Z</time></trkpt><trkpt lat="44.4686472571085" lon="7.8856231848175975"><ele>282.3333333333333</ele><time>2026-04-26T15:46:13Z</time></trkpt><trkpt lat="44.46845909872458" lon="7.885439175554696"><ele>281.6666666666667</ele><time>2026-04-26T15:46:14Z</time></trkpt><trkpt lat="44.46829620505914" lon="7.88527987410559"><ele>281.0</ele><time>2026-04-26T15:46:15Z</time></trkpt><trkpt lat="44.468150940238424" lon="7.8851378129548495"><ele>282.33333333333337</ele><time>2026-04-26T15:46:16Z</time></trkpt><trkpt lat="44.468017612204804" lon="7.885007425487154"><ele>283.6666666666667</ele><time>2026-04-26T15:46:17Z</time></trkpt><trkpt lat="44.46788995480742" lon="7.884882583121022"><ele>285.0</ele><time>2026-04-26T15:46:18Z</time></trkpt><trkpt lat="44.46777603595642" lon="7.884769378209981"><ele>285.0</ele><time>2026-04-26T15:46:19Z</time></trkpt><trkpt lat="44.467670123624565" lon="7.8846636314290395"><ele>285.0</ele><time>2026-04-26T15:46:20Z</time></trkpt><trkpt lat="44.467568965140906" lon="7.884562630922406"><ele>285.0</ele><time>2026-04-26T15:46:21.001Z</time></trkpt><trkpt lat="44.467471633439445" lon="7.88446437018528"><ele>285.0</ele><time>2026-04-26T15:46:22.001Z</time></trkpt><trkpt lat="44.467381562499355" lon="7.884368885969355"><ele>285.0</ele><time>2026-04-26T15:46:23.001Z</time></trkpt><trkpt lat="44.46730835660295" lon="7.88427832160054"><ele>285.0</ele><time>2026-04-26T15:46:24.001Z</time></trkpt><trkpt lat="44.4672413860619" lon="7.884181851747476"><ele>285.0</ele><time>2026-04-26T15:46:25.001Z</time></trkpt><trkpt lat="44.467096518023666" lon="7.8840127520340575"><ele>285.0</ele><time>2026-04-26T15:46:26.001Z</time></trkpt><trkpt lat="44.46699473209296" lon="7.883941517570336"><ele>285.0</ele><time>2026-04-26T15:46:27.001Z</time></trkpt><trkpt lat="44.46691694790624" lon="7.883887928932515"><ele>285.0</ele><time>2026-04-26T15:46:28.001Z</time></trkpt><trkpt lat="44.466859026941385" lon="7.883848155055667"><ele>285.0</ele><time>2026-04-26T15:46:29.001Z</time></trkpt><trkpt lat="44.466773386940666" lon="7.883775066726626"><ele>285.0</ele><time>2026-04-26T15:46:30.001Z</time></trkpt><trkpt lat="44.4666887736742" lon="7.883699988115048"><ele>285.0</ele><time>2026-04-26T15:46:31.001Z</time></trkpt><trkpt lat="44.46659916297878" lon="7.883618701712034"><ele>285.0</ele><time>2026-04-26T15:46:32.001Z</time></trkpt><trkpt lat="44.46650654508199" lon="7.88353468773117"><ele>285.0</ele><time>2026-04-26T15:46:33.001Z</time></trkpt><trkpt lat="44.466425842937696" lon="7.88345862817553"><ele>285.0</ele><time>2026-04-26T15:46:34.001Z</time></trkpt><trkpt lat="44.46634434762543" lon="7.883377894617402"><ele>285.0</ele><time>2026-04-26T15:46:35.001Z</time></trkpt><trkpt lat="44.466283735030096" lon="7.883306267194753"><ele>285.0</ele><time>2026-04-26T15:46:36.001Z</time></trkpt><trkpt lat="44.466058295571855" lon="7.883439514321123"><ele>284.6666666666667</ele><time>2026-04-26T15:46:37.001Z</time></trkpt><trkpt lat="44.46598647375034" lon="7.883324763541549"><ele>284.3333333333333</ele><time>2026-04-26T15:46:38.001Z</time></trkpt><trkpt lat="44.46592826350341" lon="7.883223264386732"><ele>284.0</ele><time>2026-04-26T15:46:39.001Z</time></trkpt><trkpt lat="44.46586412179398" lon="7.883146009702614"><ele>283.66666666666663</ele><time>2026-04-26T15:46:40.001Z</time></trkpt><trkpt lat="44.4658060557326" lon="7.88309371463543"><ele>283.3333333333333</ele><time>2026-04-26T15:46:41.001Z</time></trkpt><trkpt lat="44.465730258387026" lon="7.883050194797984"><ele>283.0</ele><time>2026-04-26T15:46:42.001Z</time></trkpt><trkpt lat="44.46562414635318" lon="7.882999182918153"><ele>283.0</ele><time>2026-04-26T15:46:43.001Z</time></trkpt><trkpt lat="44.46551408987173" lon="7.882943694821233"><ele>283.0</ele><time>2026-04-26T15:46:44.001Z</time></trkpt><trkpt lat="44.46542535847617" lon="7.882880589003704"><ele>283.0</ele><time>2026-04-26T15:46:45.001Z</time></trkpt><trkpt lat="44.46534898166355" lon="7.8828127664365235"><ele>283.0</ele><time>2026-04-26T15:46:46.001Z</time></trkpt><trkpt lat="44.46528271619154" lon="7.882737649063621"><ele>283.0</ele><time>2026-04-26T15:46:47.001Z</time></trkpt><trkpt lat="44.465206370833684" lon="7.882680617898079"><ele>281.8</ele><time>2026-04-26T15:46:48.001Z</time></trkpt><trkpt lat="44.46512694662431" lon="7.882621432438892"><ele>280.6</ele><time>2026-04-26T15:46:49.001Z</time></trkpt><trkpt lat="44.46502885451122" lon="7.882570421585913"><ele>279.4</ele><time>2026-04-26T15:46:50.001Z</time></trkpt><trkpt lat="44.46494310598187" lon="7.88250267273733"><ele>278.2</ele><time>2026-04-26T15:46:51.001Z</time></trkpt><trkpt lat="44.46484986901317" lon="7.882461523062376"><ele>277.0</ele><time>2026-04-26T15:46:52.001Z</time></trkpt><trkpt lat="44.46475144529517" lon="7.882459762362836"><ele>277.0</ele><time>2026-04-26T15:46:53.001Z</time></trkpt><trkpt lat="44.46464934577397" lon="7.882418263076799"><ele>277.0</ele><time>2026-04-26T15:46:54.001Z</time></trkpt><trkpt lat="44.464525368586024" lon="7.882438602651574"><ele>277.0</ele><time>2026-04-26T15:46:55.001Z</time></trkpt><trkpt lat="44.46441747721437" lon="7.882405119486066"><ele>277.0</ele><time>2026-04-26T15:46:56.001Z</time></trkpt><trkpt lat="44.464332612636916" lon="7.882395033308988"><ele>277.0</ele><time>2026-04-26T15:46:57.001Z</time></trkpt><trkpt lat="44.46424946930293" lon="7.882385284266589"><ele>277.2</ele><time>2026-04-26T15:46:58.001Z</time></trkpt><trkpt lat="44.464156119876854" lon="7.8823745785999755"><ele>277.4</ele><time>2026-04-26T15:46:59.001Z</time></trkpt><trkpt lat="44.464049584631034" lon="7.882360324466426"><ele>277.6</ele><time>2026-04-26T15:47:00.001Z</time></trkpt><trkpt lat="44.46394928736207" lon="7.882345280590112"><ele>277.8</ele><time>2026-04-26T15:47:01.001Z</time></trkpt><trkpt lat="44.463849011419796" lon="7.88233273776576"><ele>278.0</ele><time>2026-04-26T15:47:02.001Z</time></trkpt><trkpt lat="44.4637422406073" lon="7.8823292728920755"><ele>278.0</ele><time>2026-04-26T15:47:03.001Z</time></trkpt><trkpt lat="44.46364662412749" lon="7.8823396733533855"><ele>278.0</ele><time>2026-04-26T15:47:04.001Z</time></trkpt><trkpt lat="44.46355020331561" lon="7.8823953196304934"><ele>278.0</ele><time>2026-04-26T15:47:05.001Z</time></trkpt><trkpt lat="44.46345110732528" lon="7.882456805137411"><ele>278.0</ele><time>2026-04-26T15:47:06.001Z</time></trkpt><trkpt lat="44.463409844051" lon="7.882549169487939"><ele>278.0</ele><time>2026-04-26T15:47:07.001Z</time></trkpt><trkpt lat="44.46329366774779" lon="7.882686024014889"><ele>277.0</ele><time>2026-04-26T15:47:09.001Z</time></trkpt><trkpt lat="44.46296477608761" lon="7.882957625481067"><ele>276.0</ele><time>2026-04-26T15:47:10.001Z</time></trkpt><trkpt lat="44.46272885863667" lon="7.8829042275649535"><ele>276.0</ele><time>2026-04-26T15:47:11.001Z</time></trkpt><trkpt lat="44.46263008883746" lon="7.882873381364687"><ele>276.0</ele><time>2026-04-26T15:47:12.001Z</time></trkpt><trkpt lat="44.46255575007652" lon="7.882839235313336"><ele>276.0</ele><time>2026-04-26T15:47:13.001Z</time></trkpt><trkpt lat="44.46247361074687" lon="7.882801506085272"><ele>276.0</ele><time>2026-04-26T15:47:14.001Z</time></trkpt><trkpt lat="44.462354552263776" lon="7.8827438751976935"><ele>276.0</ele><time>2026-04-26T15:47:15.001Z</time></trkpt><trkpt lat="44.46215961413091" lon="7.882617506723338"><ele>277.40000000000003</ele><time>2026-04-26T15:47:16.001Z</time></trkpt><trkpt lat="44.46208953269169" lon="7.882524804977033"><ele>278.8</ele><time>2026-04-26T15:47:17.001Z</time></trkpt><trkpt lat="44.46200576812981" lon="7.882462056346878"><ele>280.20000000000005</ele><time>2026-04-26T15:47:18.001Z</time></trkpt><trkpt lat="44.46192163365345" lon="7.8824137596898565"><ele>281.6</ele><time>2026-04-26T15:47:20.001Z</time></trkpt><trkpt lat="44.461854451394444" lon="7.882416434114414"><ele>283.0</ele><time>2026-04-26T15:47:23.001Z</time></trkpt><trkpt lat="44.461535436319245" lon="7.882147073613581"><ele>283.0</ele><time>2026-04-26T15:47:26Z</time></trkpt><trkpt lat="44.46146927774115" lon="7.88211060955023"><ele>283.0</ele><time>2026-04-26T15:47:27Z</time></trkpt><trkpt lat="44.46138128012785" lon="7.882074246195501"><ele>283.0</ele><time>2026-04-26T15:47:28Z</time></trkpt><trkpt lat="44.46130213162794" lon="7.882044034058109"><ele>283.0</ele><time>2026-04-26T15:47:29Z</time></trkpt><trkpt lat="44.4612260510964" lon="7.882017559768778"><ele>283.0</ele><time>2026-04-26T15:47:30Z</time></trkpt><trkpt lat="44.46115330098915" lon="7.881993515752692"><ele>283.0</ele><time>2026-04-26T15:47:31Z</time></trkpt><trkpt lat="44.46108695027978" lon="7.881972544558512"><ele>283.16666666666663</ele><time>2026-04-26T15:47:32Z</time></trkpt><trkpt lat="44.46100489896717" lon="7.881947091715676"><ele>283.3333333333333</ele><time>2026-04-26T15:47:33Z</time></trkpt><trkpt lat="44.460926565692475" lon="7.881924204593138"><ele>283.5</ele><time>2026-04-26T15:47:34Z</time></trkpt><trkpt lat="44.46084296605543" lon="7.881899715511484"><ele>283.6666666666667</ele><time>2026-04-26T15:47:35Z</time></trkpt><trkpt lat="44.46075001224274" lon="7.881872486343323"><ele>283.83333333333337</ele><time>2026-04-26T15:47:36Z</time></trkpt><trkpt lat="44.46065450807978" lon="7.881844481313323"><ele>284.0</ele><time>2026-04-26T15:47:37Z</time></trkpt><trkpt lat="44.46057017179084" lon="7.881818195544832"><ele>284.0</ele><time>2026-04-26T15:47:38Z</time></trkpt><trkpt lat="44.46048792720057" lon="7.881792236145898"><ele>284.0</ele><time>2026-04-26T15:47:39Z</time></trkpt><trkpt lat="44.460412431561366" lon="7.881768077582391"><ele>284.0</ele><time>2026-04-26T15:47:40Z</time></trkpt><trkpt lat="44.46032183018793" lon="7.881738210251968"><ele>284.0</ele><time>2026-04-26T15:47:41Z</time></trkpt><trkpt lat="44.46024525738535" lon="7.881711946758048"><ele>284.0</ele><time>2026-04-26T15:47:42Z</time></trkpt><trkpt lat="44.460090595406044" lon="7.881611124756901"><ele>288.5</ele><time>2026-04-26T15:47:43Z</time></trkpt><trkpt lat="44.45990088560867" lon="7.881372562187054"><ele>293.0</ele><time>2026-04-26T15:47:44Z</time></trkpt><trkpt lat="44.45977636731943" lon="7.881159121111573"><ele>293.0</ele><time>2026-04-26T15:47:45Z</time></trkpt><trkpt lat="44.459713419587935" lon="7.881052576361124"><ele>293.0</ele><time>2026-04-26T15:47:46Z</time></trkpt><trkpt lat="44.459675128412854" lon="7.880943885826929"><ele>293.0</ele><time>2026-04-26T15:47:47Z</time></trkpt><trkpt lat="44.459617869192094" lon="7.880842066559079"><ele>293.0</ele><time>2026-04-26T15:47:48Z</time></trkpt><trkpt lat="44.459564544688625" lon="7.880744578734021"><ele>293.0</ele><time>2026-04-26T15:47:49Z</time></trkpt><trkpt lat="44.45951568827791" lon="7.88065474274798"><ele>293.0</ele><time>2026-04-26T15:47:50Z</time></trkpt><trkpt lat="44.45947504394707" lon="7.880560808903805"><ele>293.0</ele><time>2026-04-26T15:47:51Z</time></trkpt><trkpt lat="44.45942919126045" lon="7.880455489913917"><ele>293.0</ele><time>2026-04-26T15:47:52Z</time></trkpt><trkpt lat="44.45938360701948" lon="7.880350787380379"><ele>293.0</ele><time>2026-04-26T15:47:53Z</time></trkpt><trkpt lat="44.459336930417436" lon="7.8802449288604235"><ele>293.0</ele><time>2026-04-26T15:47:54Z</time></trkpt><trkpt lat="44.45928039458536" lon="7.880118857634289"><ele>293.0</ele><time>2026-04-26T15:47:55Z</time></trkpt><trkpt lat="44.45923132735568" lon="7.880009440756331"><ele>293.0</ele><time>2026-04-26T15:47:56Z</time></trkpt><trkpt lat="44.459175190613024" lon="7.879877787569395"><ele>293.0</ele><time>2026-04-26T15:47:57Z</time></trkpt><trkpt lat="44.45913212915488" lon="7.87976854870965"><ele>293.0</ele><time>2026-04-26T15:47:58Z</time></trkpt><trkpt lat="44.459090346312735" lon="7.879658347051243"><ele>293.0</ele><time>2026-04-26T15:47:59Z</time></trkpt><trkpt lat="44.45904956722997" lon="7.879503222940482"><ele>293.0</ele><time>2026-04-26T15:48:00Z</time></trkpt><trkpt lat="44.45902929322895" lon="7.879390122781913"><ele>293.6</ele><time>2026-04-26T15:48:01Z</time></trkpt><trkpt lat="44.459034368589684" lon="7.87924339158786"><ele>294.20000000000005</ele><time>2026-04-26T15:48:02Z</time></trkpt><trkpt lat="44.459050591830454" lon="7.879068626921479"><ele>294.8</ele><time>2026-04-26T15:48:04Z</time></trkpt><trkpt lat="44.45910460196448" lon="7.8789496425498795"><ele>295.40000000000003</ele><time>2026-04-26T15:48:06Z</time></trkpt><trkpt lat="44.459095794154" lon="7.878850200852279"><ele>296.0</ele><time>2026-04-26T15:48:10Z</time></trkpt><trkpt lat="44.459013524412235" lon="7.878890483187569"><ele>296.0</ele><time>2026-04-26T15:48:14Z</time></trkpt><trkpt lat="44.4589605501278" lon="7.878978659848191"><ele>296.0</ele><time>2026-04-26T15:48:16Z</time></trkpt><trkpt lat="44.4588962127341" lon="7.878924212475849"><ele>296.0</ele><time>2026-04-26T15:48:18Z</time></trkpt><trkpt lat="44.45883426519697" lon="7.87883973639305"><ele>296.0</ele><time>2026-04-26T15:48:19Z</time></trkpt><trkpt lat="44.45875899712472" lon="7.878746508908446"><ele>296.0</ele><time>2026-04-26T15:48:20Z</time></trkpt><trkpt lat="44.45869787094403" lon="7.878653658654992"><ele>296.0</ele><time>2026-04-26T15:48:21Z</time></trkpt><trkpt lat="44.458630665823236" lon="7.878551078476979"><ele>296.0</ele><time>2026-04-26T15:48:22Z</time></trkpt><trkpt lat="44.45855872932121" lon="7.878456910042108"><ele>296.0</ele><time>2026-04-26T15:48:23Z</time></trkpt><trkpt lat="44.45847950166829" lon="7.878378030819635"><ele>296.0</ele><time>2026-04-26T15:48:24Z</time></trkpt><trkpt lat="44.45838410140393" lon="7.878299353536263"><ele>296.0</ele><time>2026-04-26T15:48:25.001Z</time></trkpt><trkpt lat="44.45829336951028" lon="7.878235247318303"><ele>296.0</ele><time>2026-04-26T15:48:26.001Z</time></trkpt><trkpt lat="44.45819726347893" lon="7.878150739183408"><ele>295.5</ele><time>2026-04-26T15:48:27.001Z</time></trkpt><trkpt lat="44.458089497901476" lon="7.878041290124702"><ele>295.0</ele><time>2026-04-26T15:48:28.001Z</time></trkpt><trkpt lat="44.45796409464647" lon="7.877915044898642"><ele>294.5</ele><time>2026-04-26T15:48:29.001Z</time></trkpt><trkpt lat="44.45784509467869" lon="7.877797807097813"><ele>294.0</ele><time>2026-04-26T15:48:30.001Z</time></trkpt><trkpt lat="44.457725592917" lon="7.877720154370704"><ele>294.0</ele><time>2026-04-26T15:48:31.001Z</time></trkpt><trkpt lat="44.45764285311631" lon="7.877619009459963"><ele>294.0</ele><time>2026-04-26T15:48:32.001Z</time></trkpt><trkpt lat="44.457557746753224" lon="7.877533804423468"><ele>294.0</ele><time>2026-04-26T15:48:33.001Z</time></trkpt><trkpt lat="44.45748923084648" lon="7.877450614998112"><ele>294.0</ele><time>2026-04-26T15:48:34.001Z</time></trkpt><trkpt lat="44.457400325915835" lon="7.877384695491346"><ele>294.0</ele><time>2026-04-26T15:48:35.001Z</time></trkpt><trkpt lat="44.45733261425338" lon="7.877318147446655"><ele>294.3333333333333</ele><time>2026-04-26T15:48:36.001Z</time></trkpt><trkpt lat="44.45725617847295" lon="7.877249767256014"><ele>294.6666666666667</ele><time>2026-04-26T15:48:37.001Z</time></trkpt><trkpt lat="44.457185666289654" lon="7.87718674607875"><ele>295.0</ele><time>2026-04-26T15:48:38.001Z</time></trkpt><trkpt lat="44.457123016023345" lon="7.877131960735526"><ele>295.33333333333337</ele><time>2026-04-26T15:48:39.001Z</time></trkpt><trkpt lat="44.45706714485137" lon="7.877074216171471"><ele>295.6666666666667</ele><time>2026-04-26T15:48:40.001Z</time></trkpt><trkpt lat="44.45701259335086" lon="7.877021650899804"><ele>296.0</ele><time>2026-04-26T15:48:41.001Z</time></trkpt><trkpt lat="44.45691550974514" lon="7.876965652196238"><ele>296.0</ele><time>2026-04-26T15:48:43.001Z</time></trkpt><trkpt lat="44.45681195259204" lon="7.876927273026182"><ele>296.0</ele><time>2026-04-26T15:48:45.001Z</time></trkpt><trkpt lat="44.45669197135352" lon="7.876820883111226"><ele>296.0</ele><time>2026-04-26T15:48:47.001Z</time></trkpt><trkpt lat="44.456636924418284" lon="7.876776814427915"><ele>296.0</ele><time>2026-04-26T15:48:49.001Z</time></trkpt><trkpt lat="44.456639432664325" lon="7.876894097291897"><ele>296.0</ele><time>2026-04-26T15:48:51.001Z</time></trkpt><trkpt lat="44.45663518358867" lon="7.877001349457775"><ele>296.0</ele><time>2026-04-26T15:48:53.001Z</time></trkpt><trkpt lat="44.4566365544261" lon="7.877148153237647"><ele>296.0</ele><time>2026-04-26T15:48:55.001Z</time></trkpt><trkpt lat="44.45659959922165" lon="7.877235236542907"><ele>296.0</ele><time>2026-04-26T15:48:56.001Z</time></trkpt><trkpt lat="44.45654035980417" lon="7.877296099303473"><ele>296.0</ele><time>2026-04-26T15:48:57.001Z</time></trkpt><trkpt lat="44.45644520838078" lon="7.877393061617895"><ele>296.0</ele><time>2026-04-26T15:48:59.001Z</time></trkpt><trkpt lat="44.45639676799825" lon="7.877467318961941"><ele>296.0</ele><time>2026-04-26T15:49:00.001Z</time></trkpt><trkpt lat="44.45629787891489" lon="7.8775798709815605"><ele>295.83333333333337</ele><time>2026-04-26T15:49:02.001Z</time></trkpt><trkpt lat="44.456200911003606" lon="7.877595450886777"><ele>295.6666666666667</ele><time>2026-04-26T15:49:04.001Z</time></trkpt><trkpt lat="44.45618070461412" lon="7.877711793676154"><ele>295.5</ele><time>2026-04-26T15:49:10.001Z</time></trkpt><trkpt lat="44.456222361889445" lon="7.877779058677102"><ele>295.3333333333333</ele><time>2026-04-26T15:49:12.001Z</time></trkpt><trkpt lat="44.45623396720639" lon="7.877877271390084"><ele>295.16666666666663</ele><time>2026-04-26T15:49:14.001Z</time></trkpt><trkpt lat="44.456275523719476" lon="7.877953530524164"><ele>295.0</ele><time>2026-04-26T15:49:30.001Z</time></trkpt><trkpt lat="44.45630090487055" lon="7.878069583680847"><ele>295.3333333333333</ele><time>2026-04-26T15:49:38Z</time></trkpt><trkpt lat="44.456330338261566" lon="7.878186571038196"><ele>295.66666666666663</ele><time>2026-04-26T15:49:58Z</time></trkpt><trkpt lat="44.456455859455" lon="7.878241920398586"><ele>296.0</ele><time>2026-04-26T15:50:00Z</time></trkpt><trkpt lat="44.45652929963557" lon="7.878269509254475"><ele>296.3333333333333</ele><time>2026-04-26T15:50:01Z</time></trkpt><trkpt lat="44.45660475769161" lon="7.87828705685455"><ele>296.6666666666667</ele><time>2026-04-26T15:50:02Z</time></trkpt><trkpt lat="44.45666461336147" lon="7.878315902923952"><ele>297.0</ele><time>2026-04-26T15:50:03Z</time></trkpt><trkpt lat="44.45661372734641" lon="7.878393663400651"><ele>297.0</ele><time>2026-04-26T15:50:06Z</time></trkpt><trkpt lat="44.45655163141096" lon="7.87842129240396"><ele>297.0</ele><time>2026-04-26T15:50:08Z</time></trkpt><trkpt lat="44.45659885834174" lon="7.878519457554278"><ele>297.0</ele><time>2026-04-26T15:50:10Z</time></trkpt><trkpt lat="44.4566931813922" lon="7.878606484435668"><ele>297.0</ele><time>2026-04-26T15:50:12Z</time></trkpt><trkpt lat="44.456770574610424" lon="7.878568036861082"><ele>297.0</ele><time>2026-04-26T15:50:13Z</time></trkpt><trkpt lat="44.456851148491985" lon="7.87854214067318"><ele>297.0</ele><time>2026-04-26T15:50:14Z</time></trkpt><trkpt lat="44.45691954469068" lon="7.878505660753533"><ele>299.6</ele><time>2026-04-26T15:50:15Z</time></trkpt><trkpt lat="44.45700387162855" lon="7.878640027991946"><ele>302.2</ele><time>2026-04-26T15:50:17Z</time></trkpt><trkpt lat="44.45710337796926" lon="7.878626930795333"><ele>304.8</ele><time>2026-04-26T15:50:19Z</time></trkpt><trkpt lat="44.457039170130834" lon="7.878595428260216"><ele>307.4</ele><time>2026-04-26T15:50:22Z</time></trkpt><trkpt lat="44.457075379029746" lon="7.878753043675913"><ele>310.0</ele><time>2026-04-26T15:53:18.001Z</time></trkpt><trkpt lat="44.45704028585552" lon="7.878608171355563"><ele>310.0</ele><time>2026-04-26T15:53:23.001Z</time></trkpt><trkpt lat="44.45705825883177" lon="7.878516225018374"><ele>310.0</ele><time>2026-04-26T15:53:26.001Z</time></trkpt><trkpt lat="44.45711837861504" lon="7.878620856033646"><ele>310.0</ele><time>2026-04-26T15:58:36Z</time></trkpt><trkpt lat="44.4571750172581" lon="7.878689131233996"><ele>310.0</ele><time>2026-04-26T15:58:37Z</time></trkpt><trkpt lat="44.45722498622412" lon="7.878768409377484"><ele>310.0</ele><time>2026-04-26T15:58:42Z</time></trkpt><trkpt lat="44.4573017365602" lon="7.878814225523583"><ele>310.0</ele><time>2026-04-26T15:58:45Z</time></trkpt><trkpt lat="44.457366788989894" lon="7.878876423854322"><ele>307.4</ele><time>2026-04-26T15:58:48Z</time></trkpt><trkpt lat="44.45743690612448" lon="7.878901602157565"><ele>304.8</ele><time>2026-04-26T15:58:50Z</time></trkpt><trkpt lat="44.45751035397502" lon="7.878925646165272"><ele>302.2</ele><time>2026-04-26T15:58:52Z</time></trkpt><trkpt lat="44.457557441067" lon="7.879033707273378"><ele>299.6</ele><time>2026-04-26T15:58:54Z</time></trkpt><trkpt lat="44.45748301512291" lon="7.879200187216538"><ele>297.0</ele><time>2026-04-26T15:58:56Z</time></trkpt><trkpt lat="44.45743798708085" lon="7.879311654678313"><ele>297.0</ele><time>2026-04-26T15:58:57Z</time></trkpt><trkpt lat="44.45745493621594" lon="7.879397439609884"><ele>297.0</ele><time>2026-04-26T15:58:59Z</time></trkpt><trkpt lat="44.4575251630844" lon="7.879468435620976"><ele>297.0</ele><time>2026-04-26T15:59:01Z</time></trkpt><trkpt lat="44.45755165616425" lon="7.879353706265481"><ele>297.0</ele><time>2026-04-26T15:59:03Z</time></trkpt><trkpt lat="44.45750015266447" lon="7.879266082747244"><ele>297.0</ele><time>2026-04-26T15:59:11Z</time></trkpt><trkpt lat="44.45751659350567" lon="7.879126764617059"><ele>297.0</ele><time>2026-04-26T15:59:14Z</time></trkpt><trkpt lat="44.457508880429636" lon="7.879012231585248"><ele>296.8333333333333</ele><time>2026-04-26T15:59:15Z</time></trkpt><trkpt lat="44.45748961899647" lon="7.878897304062702"><ele>296.6666666666667</ele><time>2026-04-26T15:59:16Z</time></trkpt><trkpt lat="44.45744856274247" lon="7.87877997158153"><ele>296.5</ele><time>2026-04-26T15:59:17Z</time></trkpt><trkpt lat="44.457415985035524" lon="7.8786651649850175"><ele>296.33333333333337</ele><time>2026-04-26T15:59:18Z</time></trkpt><trkpt lat="44.45743541982624" lon="7.8785751978307"><ele>296.1666666666667</ele><time>2026-04-26T15:59:19Z</time></trkpt><trkpt lat="44.457505651823006" lon="7.878492805484104"><ele>296.0</ele><time>2026-04-26T15:59:21Z</time></trkpt><trkpt lat="44.45757102091003" lon="7.878472677491975"><ele>296.0</ele><time>2026-04-26T15:59:22Z</time></trkpt><trkpt lat="44.4576665083659" lon="7.878447851260419"><ele>296.0</ele><time>2026-04-26T15:59:23Z</time></trkpt><trkpt lat="44.45776688103865" lon="7.878777479609555"><ele>296.0</ele><time>2026-04-26T15:59:33.001Z</time></trkpt><trkpt lat="44.45776154839165" lon="7.8788955340515905"><ele>296.0</ele><time>2026-04-26T15:59:36.001Z</time></trkpt><trkpt lat="44.45774334669871" lon="7.879019466403981"><ele>296.0</ele><time>2026-04-26T15:59:38.001Z</time></trkpt><trkpt lat="44.45767095704928" lon="7.878918360905681"><ele>296.0</ele><time>2026-04-26T15:59:43.001Z</time></trkpt><trkpt lat="44.45766700770897" lon="7.878819701459687"><ele>296.0</ele><time>2026-04-26T15:59:46.001Z</time></trkpt><trkpt lat="44.45759800120628" lon="7.878863502903975"><ele>296.0</ele><time>2026-04-26T15:59:50.001Z</time></trkpt><trkpt lat="44.45761263845401" lon="7.87895031651822"><ele>296.0</ele><time>2026-04-26T15:59:52.001Z</time></trkpt><trkpt lat="44.45762752641153" lon="7.879042942918503"><ele>296.0</ele><time>2026-04-26T15:59:54.001Z</time></trkpt><trkpt lat="44.45759147609041" lon="7.87914283978507"><ele>296.0</ele><time>2026-04-26T15:59:58.001Z</time></trkpt><trkpt lat="44.457678289688644" lon="7.8791733314536625"><ele>296.0</ele><time>2026-04-26T16:00:00.001Z</time></trkpt><trkpt lat="44.45774009204042" lon="7.87913719208068"><ele>296.0</ele><time>2026-04-26T16:00:03Z</time></trkpt><trkpt lat="44.45778239978654" lon="7.8790159694140325"><ele>296.0</ele><time>2026-04-26T16:00:05Z</time></trkpt><trkpt lat="44.457812895708315" lon="7.878903382967892"><ele>296.0</ele><time>2026-04-26T16:00:07Z</time></trkpt><trkpt lat="44.45788379868209" lon="7.878861723988275"><ele>296.0</ele><time>2026-04-26T16:00:12Z</time></trkpt><trkpt lat="44.45790949597301" lon="7.878777374112192"><ele>296.0</ele><time>2026-04-26T16:00:13Z</time></trkpt><trkpt lat="44.4578923380134" lon="7.878670786869455"><ele>296.0</ele><time>2026-04-26T16:00:16Z</time></trkpt><trkpt lat="44.45783050308959" lon="7.878584781038404"><ele>296.0</ele><time>2026-04-26T16:00:18Z</time></trkpt><trkpt lat="44.45776557590905" lon="7.878578193294555"><ele>296.0</ele><time>2026-04-26T16:00:20Z</time></trkpt><trkpt lat="44.45769364305067" lon="7.878556622780203"><ele>296.0</ele><time>2026-04-26T16:00:22Z</time></trkpt><trkpt lat="44.4576073927453" lon="7.878453926764287"><ele>296.0</ele><time>2026-04-26T16:00:24Z</time></trkpt><trkpt lat="44.45754265793764" lon="7.878430750055803"><ele>296.2</ele><time>2026-04-26T16:00:26Z</time></trkpt><trkpt lat="44.45745809168398" lon="7.87838200868467"><ele>296.40000000000003</ele><time>2026-04-26T16:00:28Z</time></trkpt><trkpt lat="44.45737661104023" lon="7.8784257541229845"><ele>296.6</ele><time>2026-04-26T16:00:31Z</time></trkpt><trkpt lat="44.45722478611446" lon="7.878423860282653"><ele>296.8</ele><time>2026-04-26T16:00:33Z</time></trkpt><trkpt lat="44.457124788836886" lon="7.878383648914686"><ele>297.0</ele><time>2026-04-26T16:00:34Z</time></trkpt><trkpt lat="44.457017950727185" lon="7.878357555759985"><ele>297.0</ele><time>2026-04-26T16:00:36Z</time></trkpt><trkpt lat="44.45692804967007" lon="7.878378818195617"><ele>297.0</ele><time>2026-04-26T16:00:37Z</time></trkpt><trkpt lat="44.456865701929104" lon="7.878413273414536"><ele>297.0</ele><time>2026-04-26T16:00:38Z</time></trkpt><trkpt lat="44.45674889901387" lon="7.878343303515286"><ele>297.0</ele><time>2026-04-26T16:00:40Z</time></trkpt><trkpt lat="44.45668554084914" lon="7.878292314532459"><ele>297.0</ele><time>2026-04-26T16:00:41Z</time></trkpt><trkpt lat="44.456622531929696" lon="7.878243601892706"><ele>297.0</ele><time>2026-04-26T16:00:42Z</time></trkpt><trkpt lat="44.45652214896589" lon="7.878179874050558"><ele>297.0</ele><time>2026-04-26T16:00:44Z</time></trkpt><trkpt lat="44.45646548742278" lon="7.878127119362834"><ele>297.0</ele><time>2026-04-26T16:00:45Z</time></trkpt><trkpt lat="44.45643744555196" lon="7.878012151122004"><ele>297.0</ele><time>2026-04-26T16:00:47Z</time></trkpt><trkpt lat="44.45650137033369" lon="7.877928229614759"><ele>297.0</ele><time>2026-04-26T16:00:49Z</time></trkpt><trkpt lat="44.45661222902844" lon="7.877970615423467"><ele>297.0</ele><time>2026-04-26T16:00:51Z</time></trkpt><trkpt lat="44.456657922898714" lon="7.878038764553437"><ele>297.0</ele><time>2026-04-26T16:00:52Z</time></trkpt><trkpt lat="44.45672960077721" lon="7.878100059402451"><ele>297.0</ele><time>2026-04-26T16:00:53Z</time></trkpt><trkpt lat="44.456772894358124" lon="7.878166333227466"><ele>297.0</ele><time>2026-04-26T16:00:55Z</time></trkpt><trkpt lat="44.456887051105014" lon="7.878264321782942"><ele>297.0</ele><time>2026-04-26T16:01:03Z</time></trkpt><trkpt lat="44.45699260284093" lon="7.878282011610311"><ele>297.0</ele><time>2026-04-26T16:01:06Z</time></trkpt><trkpt lat="44.45706541553077" lon="7.878328160802399"><ele>297.0</ele><time>2026-04-26T16:01:09Z</time></trkpt><trkpt lat="44.45713881358805" lon="7.878319919876247"><ele>297.0</ele><time>2026-04-26T16:01:11Z</time></trkpt><trkpt lat="44.45707375169774" lon="7.878152969239802"><ele>297.0</ele><time>2026-04-26T16:01:24Z</time></trkpt><trkpt lat="44.45700201894594" lon="7.878152889445418"><ele>297.0</ele><time>2026-04-26T16:01:25Z</time></trkpt><trkpt lat="44.45690701405023" lon="7.878097594554571"><ele>297.0</ele><time>2026-04-26T16:01:27Z</time></trkpt><trkpt lat="44.45680499815085" lon="7.878016071758117"><ele>297.0</ele><time>2026-04-26T16:01:29Z</time></trkpt><trkpt lat="44.45672898805245" lon="7.878001543253998"><ele>297.0</ele><time>2026-04-26T16:01:31Z</time></trkpt><trkpt lat="44.45665812159155" lon="7.877918233839794"><ele>297.0</ele><time>2026-04-26T16:01:33Z</time></trkpt><trkpt lat="44.45662662756751" lon="7.877838389922096"><ele>297.0</ele><time>2026-04-26T16:01:34Z</time></trkpt><trkpt lat="44.45658359741237" lon="7.877764022782624"><ele>297.0</ele><time>2026-04-26T16:01:35Z</time></trkpt><trkpt lat="44.456498614251096" lon="7.877708552247456"><ele>297.0</ele><time>2026-04-26T16:01:37Z</time></trkpt><trkpt lat="44.45645831549929" lon="7.877781296671808"><ele>297.0</ele><time>2026-04-26T16:01:39Z</time></trkpt><trkpt lat="44.45643307057704" lon="7.877894512955893"><ele>297.0</ele><time>2026-04-26T16:01:42Z</time></trkpt><trkpt lat="44.456424748375845" lon="7.8780268211472695"><ele>297.0</ele><time>2026-04-26T16:01:44Z</time></trkpt><trkpt lat="44.456488005514984" lon="7.878109758593711"><ele>297.0</ele><time>2026-04-26T16:01:46Z</time></trkpt><trkpt lat="44.45656056169699" lon="7.87816669154731"><ele>297.0</ele><time>2026-04-26T16:01:47Z</time></trkpt><trkpt lat="44.45662852600598" lon="7.878199142243894"><ele>297.0</ele><time>2026-04-26T16:01:48Z</time></trkpt><trkpt lat="44.45666580004361" lon="7.878294580521327"><ele>297.0</ele><time>2026-04-26T16:01:50Z</time></trkpt><trkpt lat="44.456542332196676" lon="7.878306228015605"><ele>297.0</ele><time>2026-04-26T16:01:52Z</time></trkpt><trkpt lat="44.45657542865057" lon="7.878383131668238"><ele>297.0</ele><time>2026-04-26T16:01:55Z</time></trkpt><trkpt lat="44.45664781716429" lon="7.8784370978916485"><ele>297.0</ele><time>2026-04-26T16:01:58.001Z</time></trkpt><trkpt lat="44.45671336021334" lon="7.878437779631882"><ele>297.0</ele><time>2026-04-26T16:01:59.001Z</time></trkpt><trkpt lat="44.45684951668046" lon="7.878495631696816"><ele>297.0</ele><time>2026-04-26T16:02:06.001Z</time></trkpt><trkpt lat="44.45694620756448" lon="7.878523533692721"><ele>296.8</ele><time>2026-04-26T16:02:08Z</time></trkpt><trkpt lat="44.456991070956335" lon="7.878600402297528"><ele>296.6</ele><time>2026-04-26T16:02:09Z</time></trkpt><trkpt lat="44.457074384487356" lon="7.878632051819296"><ele>296.40000000000003</ele><time>2026-04-26T16:02:10Z</time></trkpt><trkpt lat="44.45713900608277" lon="7.878690657401127"><ele>296.2</ele><time>2026-04-26T16:02:13Z</time></trkpt><trkpt lat="44.45719735611131" lon="7.878767274752051"><ele>296.0</ele><time>2026-04-26T16:02:16Z</time></trkpt><trkpt lat="44.45739229999364" lon="7.8788580450190855"><ele>296.0</ele><time>2026-04-26T16:02:23Z</time></trkpt><trkpt lat="44.457391041907094" lon="7.879011926477815"><ele>296.0</ele><time>2026-04-26T16:02:25Z</time></trkpt><trkpt lat="44.45736061218287" lon="7.879184277527774"><ele>296.0</ele><time>2026-04-26T16:02:26Z</time></trkpt><trkpt lat="44.45732835408812" lon="7.879266694233434"><ele>296.0</ele><time>2026-04-26T16:02:27Z</time></trkpt><trkpt lat="44.45737540235905" lon="7.879385192110626"><ele>296.0</ele><time>2026-04-26T16:02:29Z</time></trkpt><trkpt lat="44.457456423859895" lon="7.879428618629744"><ele>296.0</ele><time>2026-04-26T16:02:30Z</time></trkpt><trkpt lat="44.4575166816914" lon="7.879390660456839"><ele>296.0</ele><time>2026-04-26T16:02:32Z</time></trkpt><trkpt lat="44.45752650159561" lon="7.8792859135467666"><ele>296.0</ele><time>2026-04-26T16:02:35Z</time></trkpt><trkpt lat="44.4575162374935" lon="7.879183285908014"><ele>296.0</ele><time>2026-04-26T16:02:37Z</time></trkpt><trkpt lat="44.45745852082699" lon="7.879081494699833"><ele>296.0</ele><time>2026-04-26T16:02:39Z</time></trkpt><trkpt lat="44.457464932277055" lon="7.878983652810295"><ele>296.0</ele><time>2026-04-26T16:02:41Z</time></trkpt><trkpt lat="44.45744697662725" lon="7.878848581834431"><ele>296.0</ele><time>2026-04-26T16:02:43Z</time></trkpt><trkpt lat="44.4575152334913" lon="7.87878947041029"><ele>296.0</ele><time>2026-04-26T16:02:45Z</time></trkpt><trkpt lat="44.4575941190289" lon="7.878764367897431"><ele>296.0</ele><time>2026-04-26T16:02:48Z</time></trkpt><trkpt lat="44.45767349444307" lon="7.878795713172943"><ele>296.0</ele><time>2026-04-26T16:02:50Z</time></trkpt><trkpt lat="44.457710786840266" lon="7.878890481821436"><ele>296.0</ele><time>2026-04-26T16:02:52Z</time></trkpt><trkpt lat="44.45766465388499" lon="7.878985869770972"><ele>296.0</ele><time>2026-04-26T16:02:58Z</time></trkpt><trkpt lat="44.457653337150624" lon="7.878857222400254"><ele>296.0</ele><time>2026-04-26T16:03:02Z</time></trkpt><trkpt lat="44.457591082863445" lon="7.878841462963715"><ele>296.0</ele><time>2026-04-26T16:03:06Z</time></trkpt><trkpt lat="44.45762666026379" lon="7.878943175755993"><ele>296.0</ele><time>2026-04-26T16:03:09Z</time></trkpt><trkpt lat="44.45757431338465" lon="7.879044016332346"><ele>296.0</ele><time>2026-04-26T16:03:12Z</time></trkpt><trkpt lat="44.45763285971535" lon="7.879136817581716"><ele>296.0</ele><time>2026-04-26T16:03:15Z</time></trkpt><trkpt lat="44.457705708854014" lon="7.879174999477515"><ele>296.0</ele><time>2026-04-26T16:03:18Z</time></trkpt><trkpt lat="44.45775468185297" lon="7.879101648065088"><ele>296.0</ele><time>2026-04-26T16:03:20Z</time></trkpt><trkpt lat="44.457798891034315" lon="7.879031707203954"><ele>296.0</ele><time>2026-04-26T16:03:22Z</time></trkpt><trkpt lat="44.45783383786386" lon="7.878926721317472"><ele>296.0</ele><time>2026-04-26T16:03:27Z</time></trkpt><trkpt lat="44.4578881700559" lon="7.878863639044713"><ele>296.0</ele><time>2026-04-26T16:03:30Z</time></trkpt><trkpt lat="44.45793055389622" lon="7.878782762225954"><ele>296.0</ele><time>2026-04-26T16:03:34Z</time></trkpt><trkpt lat="44.45797497435994" lon="7.878718760470515"><ele>296.0</ele><time>2026-04-26T16:03:38Z</time></trkpt><trkpt lat="44.45796224257518" lon="7.878628983286834"><ele>296.0</ele><time>2026-04-26T16:03:45Z</time></trkpt><trkpt lat="44.45789467177804" lon="7.878560218877912"><ele>296.0</ele><time>2026-04-26T16:03:50Z</time></trkpt><trkpt lat="44.4577863199592" lon="7.878514418766993"><ele>296.0</ele><time>2026-04-26T16:03:52Z</time></trkpt><trkpt lat="44.457697635587664" lon="7.878451063120408"><ele>296.0</ele><time>2026-04-26T16:03:54Z</time></trkpt><trkpt lat="44.45763224161649" lon="7.878407749825831"><ele>296.0</ele><time>2026-04-26T16:03:55Z</time></trkpt><trkpt lat="44.457542192691605" lon="7.878432114480052"><ele>296.0</ele><time>2026-04-26T16:03:57Z</time></trkpt><trkpt lat="44.45747336791485" lon="7.878375006001565"><ele>296.2</ele><time>2026-04-26T16:04:00Z</time></trkpt><trkpt lat="44.45740478660015" lon="7.878405152285577"><ele>296.40000000000003</ele><time>2026-04-26T16:04:02Z</time></trkpt><trkpt lat="44.45728384657635" lon="7.878426870415001"><ele>296.6</ele><time>2026-04-26T16:04:04Z</time></trkpt><trkpt lat="44.45717735998965" lon="7.878396050885932"><ele>296.8</ele><time>2026-04-26T16:04:06Z</time></trkpt><trkpt lat="44.45707625966939" lon="7.87832754323092"><ele>297.0</ele><time>2026-04-26T16:04:08Z</time></trkpt><trkpt lat="44.45695813463372" lon="7.87837259665263"><ele>297.0</ele><time>2026-04-26T16:04:09Z</time></trkpt><trkpt lat="44.4568716697138" lon="7.878377459798747"><ele>297.0</ele><time>2026-04-26T16:04:10Z</time></trkpt><trkpt lat="44.45680707798625" lon="7.878374391042808"><ele>297.0</ele><time>2026-04-26T16:04:11Z</time></trkpt><trkpt lat="44.45672813919278" lon="7.878321648582194"><ele>297.0</ele><time>2026-04-26T16:04:12Z</time></trkpt><trkpt lat="44.45664126389965" lon="7.878247564968043"><ele>297.0</ele><time>2026-04-26T16:04:13Z</time></trkpt><trkpt lat="44.456540828495406" lon="7.878176354556076"><ele>297.0</ele><time>2026-04-26T16:04:14Z</time></trkpt><trkpt lat="44.4564858912738" lon="7.878116472477057"><ele>297.0</ele><time>2026-04-26T16:04:15Z</time></trkpt><trkpt lat="44.456427672603226" lon="7.878068249356926"><ele>297.0</ele><time>2026-04-26T16:04:17Z</time></trkpt><trkpt lat="44.456465367037445" lon="7.877993503986392"><ele>297.0</ele><time>2026-04-26T16:04:19Z</time></trkpt><trkpt lat="44.456523561936805" lon="7.877926777961408"><ele>297.0</ele><time>2026-04-26T16:04:21Z</time></trkpt><trkpt lat="44.45657376267719" lon="7.877990442173356"><ele>297.0</ele><time>2026-04-26T16:04:23Z</time></trkpt><trkpt lat="44.45664048360505" lon="7.878030423545652"><ele>297.0</ele><time>2026-04-26T16:04:26Z</time></trkpt><trkpt lat="44.45667190886884" lon="7.8781120564270735"><ele>297.0</ele><time>2026-04-26T16:04:27Z</time></trkpt><trkpt lat="44.456726994417835" lon="7.878172255063043"><ele>297.0</ele><time>2026-04-26T16:04:29Z</time></trkpt><trkpt lat="44.456783407625124" lon="7.878222098244821"><ele>297.0</ele><time>2026-04-26T16:04:30Z</time></trkpt><trkpt lat="44.45684783182503" lon="7.878240989415848"><ele>297.0</ele><time>2026-04-26T16:04:31Z</time></trkpt><trkpt lat="44.45701683572436" lon="7.878258541072224"><ele>297.0</ele><time>2026-04-26T16:04:38Z</time></trkpt><trkpt lat="44.457217390685905" lon="7.8782530787649945"><ele>297.0</ele><time>2026-04-26T16:04:44Z</time></trkpt><trkpt lat="44.45728583504561" lon="7.878206845702905"><ele>297.0</ele><time>2026-04-26T16:04:47Z</time></trkpt><trkpt lat="44.457226940937346" lon="7.878244888477206"><ele>297.0</ele><time>2026-04-26T16:04:52Z</time></trkpt><trkpt lat="44.45712982606858" lon="7.878226661792157"><ele>297.0</ele><time>2026-04-26T16:04:55Z</time></trkpt><trkpt lat="44.457061226470785" lon="7.878163823874928"><ele>297.0</ele><time>2026-04-26T16:04:58Z</time></trkpt><trkpt lat="44.4569650320517" lon="7.878121671794645"><ele>297.0</ele><time>2026-04-26T16:05:00Z</time></trkpt><trkpt lat="44.45689120129196" lon="7.878108290192344"><ele>297.0</ele><time>2026-04-26T16:05:02Z</time></trkpt><trkpt lat="44.45682425369822" lon="7.878007881612978"><ele>297.0</ele><time>2026-04-26T16:05:04Z</time></trkpt><trkpt lat="44.456770340461986" lon="7.877875897575805"><ele>297.0</ele><time>2026-04-26T16:05:05Z</time></trkpt><trkpt lat="44.45670421775383" lon="7.877773880976348"><ele>297.0</ele><time>2026-04-26T16:05:06Z</time></trkpt><trkpt lat="44.4566335877072" lon="7.877727332052664"><ele>297.0</ele><time>2026-04-26T16:05:07Z</time></trkpt><trkpt lat="44.45656135045548" lon="7.877725491091843"><ele>297.0</ele><time>2026-04-26T16:05:08Z</time></trkpt><trkpt lat="44.45645029615924" lon="7.877815329093866"><ele>297.0</ele><time>2026-04-26T16:05:10Z</time></trkpt><trkpt lat="44.456368936097086" lon="7.877880787419952"><ele>297.0</ele><time>2026-04-26T16:05:11Z</time></trkpt><trkpt lat="44.45632880304274" lon="7.877951465855751"><ele>297.0</ele><time>2026-04-26T16:05:12Z</time></trkpt><trkpt lat="44.45628603120871" lon="7.878023800897421"><ele>297.0</ele><time>2026-04-26T16:05:13Z</time></trkpt><trkpt lat="44.45631898651982" lon="7.878106320717904"><ele>297.0</ele><time>2026-04-26T16:05:17Z</time></trkpt><trkpt lat="44.45636207175016" lon="7.878174181470176"><ele>297.0</ele><time>2026-04-26T16:05:19Z</time></trkpt><trkpt lat="44.45642503558941" lon="7.878215961677007"><ele>297.0</ele><time>2026-04-26T16:05:20Z</time></trkpt><trkpt lat="44.45652514575876" lon="7.878227416466463"><ele>297.0</ele><time>2026-04-26T16:05:25Z</time></trkpt><trkpt lat="44.45653196530007" lon="7.878354316817255"><ele>297.0</ele><time>2026-04-26T16:05:30Z</time></trkpt><trkpt lat="44.45659342716511" lon="7.878491516132175"><ele>297.0</ele><time>2026-04-26T16:05:32Z</time></trkpt><trkpt lat="44.456684255341955" lon="7.878518692756296"><ele>296.75</ele><time>2026-04-26T16:05:33Z</time></trkpt><trkpt lat="44.45676351246515" lon="7.878514989305411"><ele>296.5</ele><time>2026-04-26T16:05:34Z</time></trkpt><trkpt lat="44.45684499744795" lon="7.878515004055502"><ele>296.25</ele><time>2026-04-26T16:05:35Z</time></trkpt><trkpt lat="44.457050985390815" lon="7.878584042896464"><ele>296.0</ele><time>2026-04-26T16:05:40Z</time></trkpt><trkpt lat="44.45712611472818" lon="7.878686756872548"><ele>296.0</ele><time>2026-04-26T16:05:53Z</time></trkpt><trkpt lat="44.45719419067032" lon="7.878701313722796"><ele>296.0</ele><time>2026-04-26T16:06:02Z</time></trkpt><trkpt lat="44.45724792818243" lon="7.878788081480414"><ele>296.0</ele><time>2026-04-26T16:06:15Z</time></trkpt><trkpt lat="44.45733070963051" lon="7.878831336803856"><ele>296.0</ele><time>2026-04-26T16:06:17Z</time></trkpt><trkpt lat="44.457407397252595" lon="7.878862518820819"><ele>296.0</ele><time>2026-04-26T16:06:19Z</time></trkpt><trkpt lat="44.45747039299668" lon="7.878952426728455"><ele>296.0</ele><time>2026-04-26T16:06:23Z</time></trkpt><trkpt lat="44.45743517953275" lon="7.879039331076499"><ele>296.0</ele><time>2026-04-26T16:06:26Z</time></trkpt><trkpt lat="44.457463805620854" lon="7.879161902533801"><ele>296.0</ele><time>2026-04-26T16:06:28Z</time></trkpt><trkpt lat="44.457479604304645" lon="7.879276278500847"><ele>296.0</ele><time>2026-04-26T16:06:29Z</time></trkpt><trkpt lat="44.45753512184761" lon="7.879218096211824"><ele>296.0</ele><time>2026-04-26T16:06:33Z</time></trkpt><trkpt lat="44.45752585208631" lon="7.879092665203953"><ele>296.0</ele><time>2026-04-26T16:06:35Z</time></trkpt><trkpt lat="44.45751935974512" lon="7.878908895990262"><ele>296.0</ele><time>2026-04-26T16:06:37Z</time></trkpt><trkpt lat="44.45751380045173" lon="7.878755731495401"><ele>296.0</ele><time>2026-04-26T16:06:39Z</time></trkpt><trkpt lat="44.45745537303995" lon="7.878597983037597"><ele>296.0</ele><time>2026-04-26T16:06:41Z</time></trkpt><trkpt lat="44.457484759398525" lon="7.878518931625616"><ele>296.0</ele><time>2026-04-26T16:06:44Z</time></trkpt><trkpt lat="44.4575697176193" lon="7.878516176355566"><ele>296.0</ele><time>2026-04-26T16:06:47Z</time></trkpt><trkpt lat="44.45771968582717" lon="7.878705723403934"><ele>296.0</ele><time>2026-04-26T16:06:52Z</time></trkpt><trkpt lat="44.45775647509703" lon="7.878795176228297"><ele>296.0</ele><time>2026-04-26T16:06:53Z</time></trkpt><trkpt lat="44.457735976495" lon="7.878912563152297"><ele>296.0</ele><time>2026-04-26T16:06:55Z</time></trkpt><trkpt lat="44.45765838684744" lon="7.878794968090531"><ele>296.0</ele><time>2026-04-26T16:07:05Z</time></trkpt><trkpt lat="44.457652317110764" lon="7.878991728868382"><ele>296.0</ele><time>2026-04-26T16:07:12Z</time></trkpt><trkpt lat="44.45760677030261" lon="7.879109894003386"><ele>296.0</ele><time>2026-04-26T16:07:14Z</time></trkpt><trkpt lat="44.457610396586155" lon="7.879228845688456"><ele>296.0</ele><time>2026-04-26T16:07:16Z</time></trkpt><trkpt lat="44.45767819998186" lon="7.879212804797959"><ele>296.0</ele><time>2026-04-26T16:07:18Z</time></trkpt><trkpt lat="44.457750616535094" lon="7.879203403627272"><ele>296.0</ele><time>2026-04-26T16:07:20Z</time></trkpt><trkpt lat="44.45778288436678" lon="7.879097460071792"><ele>296.0</ele><time>2026-04-26T16:07:25Z</time></trkpt><trkpt lat="44.45781058224878" lon="7.879000766341875"><ele>296.0</ele><time>2026-04-26T16:07:27Z</time></trkpt><trkpt lat="44.457871416340716" lon="7.878916139175208"><ele>296.0</ele><time>2026-04-26T16:07:30Z</time></trkpt><trkpt lat="44.45792618489359" lon="7.878776972981392"><ele>296.0</ele><time>2026-04-26T16:07:32Z</time></trkpt><trkpt lat="44.45794463620098" lon="7.878683101683458"><ele>296.0</ele><time>2026-04-26T16:07:33Z</time></trkpt><trkpt lat="44.457850500597566" lon="7.87858016810699"><ele>296.0</ele><time>2026-04-26T16:07:35Z</time></trkpt><trkpt lat="44.457758220562695" lon="7.878544864249051"><ele>296.0</ele><time>2026-04-26T16:07:37Z</time></trkpt><trkpt lat="44.4576805639091" lon="7.878479864781304"><ele>296.0</ele><time>2026-04-26T16:07:39Z</time></trkpt><trkpt lat="44.45765106426427" lon="7.878392427711426"><ele>296.0</ele><time>2026-04-26T16:07:40Z</time></trkpt><trkpt lat="44.45756739121733" lon="7.8784238683515575"><ele>296.0</ele><time>2026-04-26T16:07:43Z</time></trkpt><trkpt lat="44.45749629749665" lon="7.878444452566867"><ele>296.0</ele><time>2026-04-26T16:07:46Z</time></trkpt><trkpt lat="44.45742066493067" lon="7.878453040142163"><ele>296.0</ele><time>2026-04-26T16:07:48Z</time></trkpt><trkpt lat="44.4573546662889" lon="7.878424263845635"><ele>296.0</ele><time>2026-04-26T16:07:49Z</time></trkpt><trkpt lat="44.457269682851276" lon="7.878389492739101"><ele>294.0</ele><time>2026-04-26T16:07:51Z</time></trkpt><trkpt lat="44.45719618373996" lon="7.878376767848576"><ele>294.0</ele><time>2026-04-26T16:07:53Z</time></trkpt><trkpt lat="44.45713073029966" lon="7.8783549354977165"><ele>294.0</ele><time>2026-04-26T16:07:56Z</time></trkpt><trkpt lat="44.45706122020359" lon="7.878397024844168"><ele>297.0</ele><time>2026-04-26T16:07:59Z</time></trkpt><trkpt lat="44.457004713445436" lon="7.8784661195356405"><ele>310.0</ele><time>2026-04-26T16:08:04Z</time></trkpt><trkpt lat="44.457045447906765" lon="7.87853835355793"><ele>310.0</ele><time>2026-04-26T16:08:18Z</time></trkpt></trkseg></trk></gpx>